Oilfish — ZDJJ7 — position and weather

sailwx.info

Track history (hours):
 
Tides and Currents Weather Stations Pressure Air Temp Water Temp Dewpoint Dewpoint Depression Visibility Wind Speed Wind Dir Waves Ship Positions

Oilfish

Last reported at 2017-Oct-16 14:23 UTC. Time now 2017-Oct-16 22:27 UTC.
Position N 36°08' W 005°22'.

Type: Tanker. MMSI: 236111602.

Date/timePositionNaut miles runAvg speedWind from/ knotsBaromVisibWave heightAir tempDewpointWater temp
2017-Oct-16 14:23N 36°08' W 005°22'1 0.1
2017-Oct-16 01:40N 36°09' W 005°22'0 0.0
2017-Oct-15 00:10N 36°09' W 005°22'1 3.7
2017-Oct-15 00:00N 36°08' W 005°22'1 0.4
2017-Oct-14 20:40N 36°07' W 005°21'2 0.2
2017-Oct-14 09:29N 36°09' W 005°22'0 0.0
2017-Oct-13 20:29N 36°09' W 005°22'0 0.0
2017-Oct-13 05:12N 36°09' W 005°22'1 4.1
2017-Oct-13 04:59N 36°08' W 005°22'1 0.1
2017-Oct-13 00:00N 36°09' W 005°22'2 0.2
2017-Oct-12 12:10N 36°06' W 005°22'1 5.0
2017-Oct-12 11:59N 36°07' W 005°22'1 0.1
2017-Oct-12 01:32N 36°09' W 005°22'0 4.3
2017-Oct-12 01:30N 36°09' W 005°22'1 0.2
2017-Oct-11 21:54N 36°08' W 005°22'1 0.0
2017-Oct-10 19:17N 36°07' W 005°22'1 4.3
2017-Oct-10 19:01N 36°08' W 005°22'  
2017-Oct-07 04:14N 36°09' W 005°22'2 1.8
2017-Oct-07 03:25N 36°07' W 005°22'0 0.1
2017-Oct-07 01:29N 36°07' W 005°22'1 0.2
2017-Oct-06 22:49N 36°08' W 005°22'1 0.6
2017-Oct-06 20:50N 36°09' W 005°22'2 4.2
2017-Oct-06 20:27N 36°07' W 005°21'0 0.2
2017-Oct-06 18:39N 36°07' W 005°21'1 0.1
2017-Oct-06 15:03N 36°07' W 005°22'0 5.2
2017-Oct-06 15:00N 36°08' W 005°22'  
Track history (hours):
 
Tides and Currents Weather Stations Pressure Air Temp Water Temp Dewpoint Dewpoint Depression Visibility Wind Speed Wind Dir Waves Ship Positions

Oilfish

Last reported at 2017-Oct-16 14:23 UTC. Time now 2017-Oct-16 22:27 UTC.
Position N 36°08' W 005°22'.

Type: Tanker. MMSI: 236111602.

Date/timePositionNaut miles runAvg speedWind from/ knotsBaromVisibWave heightAir tempDewpointWater temp
2017-Oct-16 14:23N 36°08' W 005°22'1 0.1
2017-Oct-16 01:40N 36°09' W 005°22'0 0.0
2017-Oct-15 00:10N 36°09' W 005°22'1 3.7
2017-Oct-15 00:00N 36°08' W 005°22'1 0.4
2017-Oct-14 20:40N 36°07' W 005°21'2 0.2
2017-Oct-14 09:29N 36°09' W 005°22'0 0.0
2017-Oct-13 20:29N 36°09' W 005°22'0 0.0
2017-Oct-13 05:12N 36°09' W 005°22'1 4.1
2017-Oct-13 04:59N 36°08' W 005°22'1 0.1
2017-Oct-13 00:00N 36°09' W 005°22'2 0.2
2017-Oct-12 12:10N 36°06' W 005°22'1 5.0
2017-Oct-12 11:59N 36°07' W 005°22'1 0.1
2017-Oct-12 01:32N 36°09' W 005°22'0 4.3
2017-Oct-12 01:30N 36°09' W 005°22'1 0.2
2017-Oct-11 21:54N 36°08' W 005°22'1 0.0
2017-Oct-10 19:17N 36°07' W 005°22'1 4.3
2017-Oct-10 19:01N 36°08' W 005°22'  
2017-Oct-07 04:14N 36°09' W 005°22'2 1.8
2017-Oct-07 03:25N 36°07' W 005°22'0 0.1
2017-Oct-07 01:29N 36°07' W 005°22'1 0.2
2017-Oct-06 22:49N 36°08' W 005°22'1 0.6
2017-Oct-06 20:50N 36°09' W 005°22'2 4.2
2017-Oct-06 20:27N 36°07' W 005°21'0 0.2
2017-Oct-06 18:39N 36°07' W 005°21'1 0.1
2017-Oct-06 15:03N 36°07' W 005°22'0 5.2
2017-Oct-06 15:00N 36°08' W 005°22'  

Dump ship's entire track history